Time;durP1;ratioP1;P1;durP2;ratioP2;P2;SDS_P1;SDS_P2;PMS_P1;PMS_P2;Temp;Humidity;BMP_temperature;BMP_pressure;BME280_temperature;BME280_humidity;BME280_pressure;Samples;Min_cycle;Max_cycle;Signal;HPM_P1;HPM_P2
2023/10/25 00:01:50;;;;;;;16.00;7.53;;;9.00;99.90;;;;;;5069839;28;20064;-72
2023/10/25 00:04:17;;;;;;;12.88;7.25;;;9.00;99.90;;;;;;5070237;28;20488;-71
2023/10/25 00:06:44;;;;;;;16.73;7.18;;;9.00;99.90;;;;;;5069748;28;20060;-71
2023/10/25 00:09:13;;;;;;;14.20;7.05;;;9.00;99.90;;;;;;5070454;28;20048;-71
2023/10/25 00:11:39;;;;;;;14.50;7.25;;;8.90;99.90;;;;;;5070020;28;20453;-72
2023/10/25 00:14:08;;;;;;;11.13;6.43;;;9.10;99.90;;;;;;5070052;28;20451;-71
2023/10/25 00:16:35;;;;;;;10.63;6.47;;;9.00;99.90;;;;;;5072043;28;20048;-71
2023/10/25 00:19:02;;;;;;;13.00;6.55;;;9.00;99.90;;;;;;5074073;28;20060;-71
2023/10/25 00:21:29;;;;;;;9.70;6.32;;;9.00;99.90;;;;;;5069067;28;20101;-71
2023/10/25 00:23:55;;;;;;;14.15;6.68;;;9.00;99.90;;;;;;5073688;28;20527;-72
2023/10/25 00:26:24;;;;;;;9.55;5.55;;;8.90;99.90;;;;;;5069556;28;20056;-71
2023/10/25 00:28:51;;;;;;;10.65;6.63;;;8.90;99.90;;;;;;5073361;28;20083;-71
2023/10/25 00:31:17;;;;;;;11.68;6.03;;;8.90;99.90;;;;;;5073273;28;20530;-71
2023/10/25 00:33:44;;;;;;;11.95;6.88;;;8.90;99.90;;;;;;5073741;28;20558;-72
2023/10/25 00:36:11;;;;;;;14.63;6.25;;;8.90;99.90;;;;;;5073128;28;20512;-71
2023/10/25 00:38:38;;;;;;;11.50;5.85;;;8.90;99.90;;;;;;5073466;28;20527;-72
2023/10/25 00:41:05;;;;;;;12.63;6.05;;;8.90;99.90;;;;;;5072725;28;20044;-72
2023/10/25 00:43:33;;;;;;;9.40;6.20;;;8.90;99.90;;;;;;5073352;28;20052;-73
2023/10/25 00:46:11;;;;;;;11.18;5.65;;;8.80;99.90;;;;;;5073507;28;20045;-72
2023/10/25 00:48:39;;;;;;;11.95;6.32;;;8.80;99.90;;;;;;5072950;28;20106;-71
2023/10/25 00:51:07;;;;;;;11.48;6.10;;;8.80;99.90;;;;;;5073257;28;20500;-71
2023/10/25 00:53:36;;;;;;;11.70;5.97;;;8.80;99.90;;;;;;5073306;28;20056;-70
2023/10/25 00:56:03;;;;;;;11.77;6.32;;;8.70;99.90;;;;;;5072781;28;20048;-71
2023/10/25 00:58:33;;;;;;;13.02;6.07;;;8.70;99.90;;;;;;5073135;28;20094;-70
2023/10/25 01:01:01;;;;;;;15.75;6.20;;;8.70;99.90;;;;;;5076122;28;20044;-70
2023/10/25 01:03:28;;;;;;;11.25;6.63;;;8.70;99.90;;;;;;5075659;28;20040;-70
2023/10/25 01:05:55;;;;;;;10.52;5.65;;;8.60;99.90;;;;;;5076200;28;20389;-71
2023/10/25 01:08:22;;;;;;;14.55;6.80;;;8.60;99.90;;;;;;5076513;28;20129;-71
2023/10/25 01:10:51;;;;;;;12.45;7.18;;;8.60;99.90;;;;;;5075247;28;20081;-71
2023/10/25 01:13:18;;;;;;;11.57;5.70;;;8.50;99.90;;;;;;5076327;28;20507;-71
2023/10/25 01:15:47;;;;;;;10.80;5.35;;;8.50;99.90;;;;;;5076170;28;20530;-71
2023/10/25 01:18:14;;;;;;;16.42;6.00;;;8.50;99.90;;;;;;5075630;28;20048;-71
2023/10/25 01:20:41;;;;;;;13.30;6.57;;;8.40;99.90;;;;;;5076172;28;20048;-72
2023/10/25 01:23:10;;;;;;;11.23;6.10;;;8.40;99.90;;;;;;5075585;28;20515;-70
2023/10/25 01:25:37;;;;;;;11.75;6.25;;;8.40;99.90;;;;;;5076014;28;20047;-71
2023/10/25 01:28:05;;;;;;;12.50;6.25;;;8.30;99.90;;;;;;5075757;28;20090;-71
2023/10/25 01:30:32;;;;;;;14.68;6.53;;;8.30;99.90;;;;;;5075281;28;20105;-71
2023/10/25 01:32:59;;;;;;;11.23;6.05;;;8.30;99.90;;;;;;5075708;28;20483;-70
2023/10/25 01:35:26;;;;;;;14.05;6.70;;;8.30;99.90;;;;;;5093910;28;20044;-71
2023/10/25 01:37:53;;;;;;;12.07;6.47;;;8.30;99.90;;;;;;5070847;28;20098;-71
2023/10/25 01:40:21;;;;;;;11.30;6.18;;;8.30;99.90;;;;;;5075733;28;21303;-72
2023/10/25 01:42:51;;;;;;;11.27;6.53;;;8.20;99.90;;;;;;5075645;28;20101;-72
2023/10/25 01:45:18;;;;;;;12.95;6.70;;;8.20;99.90;;;;;;5093169;28;20040;-73
2023/10/25 01:47:44;;;;;;;11.73;6.18;;;8.20;99.90;;;;;;5075708;28;20063;-73
2023/10/25 01:50:11;;;;;;;12.38;6.35;;;8.20;99.90;;;;;;5073092;28;20048;-72
2023/10/25 01:52:38;;;;;;;12.07;6.72;;;8.10;99.90;;;;;;5074549;28;20072;-72
2023/10/25 01:55:05;;;;;;;11.48;5.93;;;8.10;99.90;;;;;;5070978;28;20098;-73
2023/10/25 01:57:34;;;;;;;10.77;6.45;;;8.10;99.90;;;;;;5075379;28;20409;-72
2023/10/25 02:00:03;;;;;;;12.52;6.30;;;8.10;99.90;;;;;;5070802;28;20048;-73
2023/10/25 02:02:30;;;;;;;7.88;5.78;;;8.10;99.90;;;;;;5075178;28;20482;-73
2023/10/25 02:04:56;;;;;;;11.32;6.32;;;8.10;99.90;;;;;;5075316;28;20096;-73
2023/10/25 02:07:23;;;;;;;12.07;6.60;;;8.10;99.90;;;;;;5072399;28;20047;-73
2023/10/25 02:09:50;;;;;;;11.35;5.90;;;8.10;99.90;;;;;;5093570;28;20098;-73
2023/10/25 02:12:17;;;;;;;16.88;6.47;;;8.00;99.90;;;;;;5074671;28;20044;-73
2023/10/25 02:14:45;;;;;;;11.27;6.50;;;8.00;99.90;;;;;;5075372;28;20458;-72
2023/10/25 02:17:12;;;;;;;13.10;6.50;;;8.00;99.90;;;;;;5075304;28;20473;-73
2023/10/25 02:19:40;;;;;;;13.30;5.85;;;8.00;99.90;;;;;;5074958;28;20536;-73
2023/10/25 02:22:06;;;;;;;14.07;6.78;;;7.90;99.90;;;;;;5088770;28;20040;-73
2023/10/25 02:24:33;;;;;;;12.43;6.05;;;7.90;99.90;;;;;;5075043;28;20044;-73
2023/10/25 02:27:02;;;;;;;17.02;7.15;;;7.90;99.90;;;;;;5069367;28;20503;-72
2023/10/25 02:29:31;;;;;;;16.38;7.60;;;7.90;99.90;;;;;;5092741;28;20047;-73
2023/10/25 02:31:59;;;;;;;11.88;7.03;;;7.90;99.90;;;;;;5092507;28;20476;-71
2023/10/25 02:34:26;;;;;;;14.60;7.57;;;7.90;99.90;;;;;;5092255;28;20048;-73
2023/10/25 02:36:53;;;;;;;15.55;7.50;;;7.80;99.90;;;;;;5074700;28;20048;-73
2023/10/25 02:39:20;;;;;;;11.13;7.32;;;7.80;99.90;;;;;;5090958;28;20062;-73
2023/10/25 02:41:47;;;;;;;13.10;6.88;;;7.90;99.90;;;;;;5074130;28;20446;-72
2023/10/25 02:44:15;;;;;;;23.17;8.27;;;7.80;99.90;;;;;;5074667;28;20048;-73
2023/10/25 02:46:42;;;;;;;12.65;7.30;;;7.80;99.90;;;;;;5074532;28;20130;-74
2023/10/25 02:49:10;;;;;;;11.00;6.93;;;7.80;99.90;;;;;;5069558;28;20052;-73
2023/10/25 02:51:38;;;;;;;17.02;7.55;;;7.80;99.90;;;;;;5074198;28;20052;-72
2023/10/25 02:54:05;;;;;;;18.23;7.53;;;7.80;99.90;;;;;;5074539;28;20113;-72
2023/10/25 02:56:32;;;;;;;16.40;8.05;;;7.70;99.90;;;;;;5073874;28;21332;-72
2023/10/25 02:58:59;;;;;;;15.90;7.82;;;7.70;99.90;;;;;;5074196;28;20063;-72
2023/10/25 03:01:26;;;;;;;17.65;8.55;;;7.70;99.90;;;;;;5074077;28;20464;-71
2023/10/25 03:03:54;;;;;;;15.02;8.07;;;7.70;99.90;;;;;;5073997;28;20408;-72
2023/10/25 03:06:22;;;;;;;13.63;7.65;;;7.70;99.90;;;;;;5074434;28;20101;-71
2023/10/25 03:08:49;;;;;;;15.63;9.00;;;7.70;99.90;;;;;;5073823;28;20121;-72
2023/10/25 03:11:16;;;;;;;16.13;7.72;;;7.70;99.90;;;;;;5071886;28;20047;-72
2023/10/25 03:13:43;;;;;;;18.92;8.57;;;7.70;99.90;;;;;;5073806;28;20503;-72
2023/10/25 03:16:11;;;;;;;20.42;8.77;;;7.70;99.90;;;;;;5069468;28;20445;-72
2023/10/25 03:18:38;;;;;;;17.95;8.82;;;7.60;99.90;;;;;;5074008;28;20052;-71
2023/10/25 03:21:05;;;;;;;14.52;8.65;;;7.60;99.90;;;;;;5074260;28;20101;-72
2023/10/25 03:23:34;;;;;;;16.13;8.60;;;7.60;99.90;;;;;;5073518;28;20044;-72
2023/10/25 03:26:05;;;;;;;14.82;9.05;;;7.60;99.90;;;;;;5092101;28;20089;-71
2023/10/25 03:28:32;;;;;;;17.85;9.13;;;7.60;99.90;;;;;;5073883;28;20078;-73
2023/10/25 03:31:04;;;;;;;18.75;8.32;;;7.60;99.90;;;;;;5073493;28;20067;-72
2023/10/25 03:33:31;;;;;;;18.88;9.15;;;7.60;99.90;;;;;;5091770;28;20059;-71
2023/10/25 03:35:58;;;;;;;19.48;9.85;;;7.50;99.90;;;;;;5054099;28;20496;-72
2023/10/25 03:38:25;;;;;;;19.77;9.43;;;7.50;99.90;;;;;;5068382;28;20040;-72
2023/10/25 03:41:02;;;;;;;20.00;9.60;;;7.50;99.90;;;;;;5073031;28;20411;-72
2023/10/25 03:43:31;;;;;;;23.38;11.05;;;7.40;99.90;;;;;;5066377;28;20123;-72
2023/10/25 03:46:02;;;;;;;20.25;10.73;;;7.40;99.90;;;;;;5087968;28;20051;-71
2023/10/25 03:48:29;;;;;;;26.98;11.82;;;7.50;99.90;;;;;;5069654;28;20454;-72
2023/10/25 03:50:56;;;;;;;18.73;11.02;;;7.40;99.90;;;;;;5064413;28;20047;-71
2023/10/25 03:53:23;;;;;;;14.80;10.43;;;7.50;99.90;;;;;;5073749;28;20050;-70
2023/10/25 03:55:55;;;;;;;17.27;11.32;;;7.60;99.90;;;;;;5073315;28;20569;-72
2023/10/25 03:58:24;;;;;;;19.08;11.63;;;7.50;99.90;;;;;;5071280;28;20075;-73
2023/10/25 04:00:58;;;;;;;21.05;11.02;;;7.50;99.90;;;;;;5069714;28;20056;-72
2023/10/25 04:03:25;;;;;;;17.23;11.07;;;7.50;99.90;;;;;;5066712;28;20443;-72
2023/10/25 04:05:53;;;;;;;17.95;11.45;;;7.50;99.90;;;;;;5068450;28;20504;-72
2023/10/25 04:08:19;;;;;;;22.60;11.43;;;7.50;99.90;;;;;;5071803;28;20056;-73
2023/10/25 04:10:50;;;;;;;20.05;10.80;;;7.50;99.90;;;;;;5071022;28;20110;-72
2023/10/25 04:13:17;;;;;;;18.50;10.88;;;7.40;99.90;;;;;;5070961;28;20099;-72
2023/10/25 04:15:54;;;;;;;21.52;12.05;;;7.50;99.90;;;;;;5071407;28;20052;-73
2023/10/25 04:18:21;;;;;;;17.48;11.05;;;7.40;99.90;;;;;;5068303;28;20129;-72
2023/10/25 04:20:48;;;;;;;21.52;12.15;;;7.40;99.90;;;;;;5070001;28;20114;-72
2023/10/25 04:23:15;;;;;;;25.30;11.25;;;7.50;99.90;;;;;;5068093;28;20040;-72
2023/10/25 04:25:42;;;;;;;20.48;11.57;;;7.60;99.90;;;;;;5068420;28;20057;-73
2023/10/25 04:28:09;;;;;;;17.25;11.27;;;7.40;99.90;;;;;;5067002;28;20040;-72
2023/10/25 04:30:36;;;;;;;20.80;11.27;;;7.40;99.90;;;;;;5063308;28;20049;-72
2023/10/25 04:33:04;;;;;;;20.02;11.52;;;7.40;99.90;;;;;;5067944;28;20119;-73
2023/10/25 04:35:31;;;;;;;18.35;10.93;;;7.40;99.90;;;;;;5061615;28;20061;-73
2023/10/25 04:37:58;;;;;;;19.45;10.95;;;7.40;99.90;;;;;;5061320;28;20080;-73
2023/10/25 04:40:25;;;;;;;22.00;11.50;;;7.40;99.90;;;;;;5066442;28;20105;-72
2023/10/25 04:42:53;;;;;;;20.65;11.65;;;7.40;99.90;;;;;;5068488;28;20049;-71
2023/10/25 04:45:20;;;;;;;22.77;11.10;;;7.30;99.90;;;;;;5072024;28;20102;-72
2023/10/25 04:47:47;;;;;;;19.25;11.88;;;7.30;99.90;;;;;;5068479;28;20045;-70
2023/10/25 04:50:15;;;;;;;22.77;11.63;;;7.30;99.90;;;;;;5071663;28;20056;-70
2023/10/25 04:52:42;;;;;;;19.92;11.10;;;7.30;99.90;;;;;;5068431;28;20049;-71
2023/10/25 04:55:10;;;;;;;21.35;10.90;;;7.30;99.90;;;;;;5071847;28;20045;-69
2023/10/25 04:57:37;;;;;;;19.02;11.07;;;7.30;99.90;;;;;;5071500;28;20052;-70
2023/10/25 05:00:07;;;;;;;17.30;10.00;;;7.40;99.90;;;;;;5068710;28;20056;-71
2023/10/25 05:02:34;;;;;;;18.70;11.02;;;7.50;99.90;;;;;;5073855;28;20070;-72
2023/10/25 05:05:00;;;;;;;14.98;9.98;;;7.40;99.90;;;;;;5072221;28;20052;-71
2023/10/25 05:07:29;;;;;;;17.75;10.48;;;7.30;99.90;;;;;;5074865;28;20040;-70
2023/10/25 05:09:57;;;;;;;19.00;9.30;;;7.30;99.90;;;;;;5071428;28;20131;-72
2023/10/25 05:12:32;;;;;;;14.75;9.07;;;7.30;99.90;;;;;;5069993;28;20040;-71
2023/10/25 05:14:59;;;;;;;20.58;10.82;;;7.20;99.90;;;;;;5066015;28;20041;-73
2023/10/25 05:17:27;;;;;;;18.73;11.00;;;7.20;99.90;;;;;;5074139;28;20048;-72
2023/10/25 05:19:54;;;;;;;15.57;9.60;;;7.20;99.90;;;;;;5068626;28;20074;-72
2023/10/25 05:22:26;;;;;;;15.05;9.43;;;7.10;99.90;;;;;;5073800;28;20039;-72
2023/10/25 05:24:55;;;;;;;18.70;10.13;;;7.10;99.90;;;;;;5072427;28;20471;-72
2023/10/25 05:27:22;;;;;;;15.63;9.73;;;7.10;99.90;;;;;;5069549;28;20044;-72
2023/10/25 05:29:50;;;;;;;17.27;10.20;;;7.10;99.90;;;;;;5071163;28;20496;-72
2023/10/25 05:32:19;;;;;;;17.30;9.68;;;7.00;99.90;;;;;;5068641;28;20507;-73
2023/10/25 05:34:48;;;;;;;15.88;9.45;;;7.00;99.90;;;;;;5072489;28;20071;-73
2023/10/25 05:37:15;;;;;;;18.92;10.23;;;7.00;99.90;;;;;;5073496;28;20127;-72
2023/10/25 05:39:43;;;;;;;18.35;9.27;;;6.90;99.90;;;;;;5071928;28;20109;-71
2023/10/25 05:42:17;;;;;;;22.40;9.75;;;6.90;99.90;;;;;;5072674;28;20051;-71
2023/10/25 05:44:45;;;;;;;16.05;9.25;;;6.90;99.90;;;;;;5069690;28;20389;-71
2023/10/25 05:47:12;;;;;;;18.80;10.00;;;6.80;99.90;;;;;;5071895;28;20048;-71
2023/10/25 05:49:39;;;;;;;15.10;9.95;;;6.80;99.90;;;;;;5072908;28;20057;-71
2023/10/25 05:52:07;;;;;;;17.33;9.23;;;6.80;99.90;;;;;;5070793;28;20044;-71
2023/10/25 05:54:35;;;;;;;19.58;9.65;;;6.80;99.90;;;;;;5072589;28;20131;-71
2023/10/25 05:57:04;;;;;;;16.55;9.20;;;6.70;99.90;;;;;;5072255;28;20052;-71
2023/10/25 05:59:36;;;;;;;16.55;9.65;;;6.70;99.90;;;;;;5071576;28;20052;-72
2023/10/25 06:02:09;;;;;;;15.32;9.40;;;6.70;99.90;;;;;;5083011;28;20044;-71
2023/10/25 06:04:38;;;;;;;17.92;9.38;;;6.70;99.90;;;;;;5079684;28;20055;-72
2023/10/25 06:07:06;;;;;;;20.30;9.55;;;6.70;99.90;;;;;;5072199;28;20097;-73
2023/10/25 06:09:34;;;;;;;16.60;9.65;;;6.70;99.90;;;;;;5075498;28;20089;-72
2023/10/25 06:12:02;;;;;;;17.00;8.45;;;6.70;99.90;;;;;;5075052;28;20419;-72
2023/10/25 06:14:32;;;;;;;19.15;9.52;;;6.70;99.90;;;;;;5074201;28;20055;-72
2023/10/25 06:17:01;;;;;;;24.20;9.53;;;6.60;99.90;;;;;;5092700;28;20054;-72
2023/10/25 06:19:31;;;;;;;19.13;9.88;;;6.60;99.90;;;;;;5074262;28;20055;-71
2023/10/25 06:21:58;;;;;;;18.83;10.00;;;6.60;99.90;;;;;;5074737;28;20052;-71
2023/10/25 06:24:25;;;;;;;16.52;9.55;;;6.70;99.90;;;;;;5092521;28;20040;-71
2023/10/25 06:26:51;;;;;;;18.00;10.02;;;6.60;99.90;;;;;;5074135;28;20044;-72
2023/10/25 06:29:18;;;;;;;17.13;8.55;;;6.60;99.90;;;;;;5074708;28;20141;-72
2023/10/25 06:31:50;;;;;;;17.63;9.68;;;6.70;99.90;;;;;;5074638;28;20513;-71
2023/10/25 06:34:19;;;;;;;12.63;8.52;;;6.60;99.90;;;;;;5091909;28;20040;-72
2023/10/25 06:36:47;;;;;;;18.75;9.10;;;6.70;99.90;;;;;;5074366;28;20484;-71
2023/10/25 06:39:14;;;;;;;15.75;9.15;;;6.70;99.90;;;;;;5074740;28;20051;-71
2023/10/25 06:41:42;;;;;;;16.95;9.75;;;6.70;99.90;;;;;;5073858;28;20048;-71
2023/10/25 06:44:10;;;;;;;14.25;8.38;;;6.70;99.90;;;;;;5074212;28;20113;-71
2023/10/25 06:46:38;;;;;;;15.73;8.15;;;6.80;99.90;;;;;;5070324;28;20408;-72
2023/10/25 06:49:05;;;;;;;14.90;8.57;;;6.80;99.90;;;;;;5074047;28;20048;-71
2023/10/25 06:51:34;;;;;;;15.68;8.50;;;6.80;99.90;;;;;;5074462;28;20122;-72
2023/10/25 06:54:01;;;;;;;11.65;8.27;;;6.90;99.90;;;;;;5073383;28;20051;-73
2023/10/25 06:56:29;;;;;;;15.82;8.57;;;6.90;99.90;;;;;;5074525;28;20051;-72
2023/10/25 06:58:57;;;;;;;14.65;8.48;;;7.00;99.90;;;;;;5069989;28;20557;-72
2023/10/25 07:01:26;;;;;;;16.83;8.18;;;7.00;99.90;;;;;;5073321;28;20097;-72
2023/10/25 07:03:57;;;;;;;13.55;8.05;;;7.10;99.90;;;;;;5074257;28;20499;-72
2023/10/25 07:06:24;;;;;;;15.50;8.48;;;7.10;99.90;;;;;;5070192;28;20067;-71
2023/10/25 07:08:53;;;;;;;15.10;8.23;;;7.20;99.90;;;;;;5073498;28;20153;-71
2023/10/25 07:11:20;;;;;;;14.73;7.70;;;7.20;99.90;;;;;;5092030;28;20040;-71
2023/10/25 07:13:47;;;;;;;15.77;8.82;;;7.50;99.90;;;;;;5073797;28;20040;-72
2023/10/25 07:16:14;;;;;;;14.25;7.88;;;7.40;99.90;;;;;;5073636;28;20052;-71
2023/10/25 07:18:41;;;;;;;11.93;8.00;;;7.50;99.90;;;;;;5073957;28;20048;-71
2023/10/25 07:21:08;;;;;;;13.18;8.13;;;7.50;99.90;;;;;;5091908;28;20408;-72
2023/10/25 07:23:35;;;;;;;14.88;7.63;;;7.70;99.90;;;;;;5069652;28;20051;-72
2023/10/25 07:26:03;;;;;;;13.48;7.72;;;7.90;99.90;;;;;;5076972;28;20055;-72
2023/10/25 07:28:32;;;;;;;11.95;7.75;;;7.90;99.90;;;;;;5077838;28;20055;-71
2023/10/25 07:30:59;;;;;;;10.30;6.80;;;8.10;99.90;;;;;;5077291;28;20052;-72
2023/10/25 07:33:25;;;;;;;9.38;6.43;;;8.40;99.90;;;;;;5078033;28;20390;-72
2023/10/25 07:35:52;;;;;;;11.23;6.47;;;8.60;99.90;;;;;;5077586;28;20109;-71
2023/10/25 07:38:19;;;;;;;12.57;6.90;;;8.90;99.90;;;;;;5077443;28;20051;-71
2023/10/25 07:40:48;;;;;;;11.65;5.80;;;9.20;99.90;;;;;;5077752;28;20048;-72
2023/10/25 07:43:16;;;;;;;9.45;5.85;;;9.60;99.90;;;;;;5077501;28;20080;-72
2023/10/25 07:45:43;;;;;;;9.85;6.22;;;10.10;99.90;;;;;;5091864;28;20553;-72
2023/10/25 07:48:10;;;;;;;12.30;5.90;;;10.50;99.90;;;;;;5077833;28;20067;-72
2023/10/25 07:50:37;;;;;;;8.68;5.60;;;11.10;99.90;;;;;;5077141;28;20060;-71
2023/10/25 07:53:04;;;;;;;9.88;4.97;;;11.60;99.90;;;;;;5077145;28;20503;-72
2023/10/25 07:55:33;;;;;;;10.65;5.40;;;11.80;99.90;;;;;;5077600;28;20447;-71
2023/10/25 07:58:00;;;;;;;10.23;5.22;;;11.90;99.90;;;;;;5076697;28;20054;-71
2023/10/25 08:00:28;;;;;;;9.45;4.90;;;11.90;99.90;;;;;;5073847;28;20109;-72
2023/10/25 08:02:55;;;;;;;10.15;4.90;;;11.80;99.90;;;;;;5072866;28;20492;-72
2023/10/25 08:05:22;;;;;;;10.00;5.05;;;11.70;99.90;;;;;;5073275;28;20501;-72
2023/10/25 08:07:48;;;;;;;8.48;4.20;;;11.60;99.90;;;;;;5073902;28;20052;-71
2023/10/25 08:10:15;;;;;;;9.13;4.97;;;11.30;99.90;;;;;;5075187;28;20044;-71
2023/10/25 08:12:42;;;;;;;8.00;5.07;;;11.10;99.90;;;;;;5071136;28;20079;-71
2023/10/25 08:15:10;;;;;;;10.57;4.75;;;11.10;99.90;;;;;;5073872;28;20122;-71
2023/10/25 08:17:38;;;;;;;9.80;4.97;;;11.00;99.90;;;;;;5073612;28;20109;-71
2023/10/25 08:20:06;;;;;;;7.72;4.57;;;11.00;99.90;;;;;;5073337;28;20060;-72
2023/10/25 08:22:33;;;;;;;10.73;4.93;;;11.00;99.90;;;;;;5071253;28;20409;-71
2023/10/25 08:25:00;;;;;;;8.88;4.45;;;10.80;99.90;;;;;;5066266;28;20045;-71
2023/10/25 08:27:27;;;;;;;10.48;5.10;;;10.70;99.90;;;;;;5073232;28;20098;-71
2023/10/25 08:29:56;;;;;;;7.47;5.28;;;10.70;99.90;;;;;;5069104;28;20110;-71
2023/10/25 08:32:23;;;;;;;11.80;4.90;;;10.70;99.90;;;;;;5072812;28;20062;-71
2023/10/25 08:34:51;;;;;;;8.73;4.97;;;10.70;99.90;;;;;;5073147;28;20047;-71
2023/10/25 08:37:18;;;;;;;6.85;4.32;;;10.60;99.90;;;;;;5072365;28;20048;-71
2023/10/25 08:39:45;;;;;;;8.18;4.63;;;10.60;99.90;;;;;;5072940;28;20061;-70
2023/10/25 08:42:12;;;;;;;7.40;4.50;;;10.60;99.90;;;;;;5073254;28;20048;-71
2023/10/25 08:44:41;;;;;;;8.77;5.07;;;10.60;99.90;;;;;;5073193;28;20040;-72
2023/10/25 08:47:10;;;;;;;9.82;5.32;;;10.70;99.90;;;;;;5072451;28;20080;-71
2023/10/25 08:49:38;;;;;;;7.88;4.55;;;10.70;99.90;;;;;;5073294;28;20711;-71
2023/10/25 08:52:07;;;;;;;9.88;5.15;;;10.60;99.90;;;;;;5072810;28;20546;-71
2023/10/25 08:54:36;;;;;;;7.82;4.57;;;10.60;99.90;;;;;;5072362;28;20106;-72
2023/10/25 08:57:04;;;;;;;7.95;5.07;;;10.60;99.90;;;;;;5073195;28;20052;-70
2023/10/25 08:59:31;;;;;;;9.52;5.10;;;10.50;99.90;;;;;;5069144;28;20063;-71
2023/10/25 09:01:58;;;;;;;10.60;5.07;;;10.40;99.90;;;;;;5055784;28;20052;-71
2023/10/25 09:04:25;;;;;;;10.05;5.88;;;10.40;99.90;;;;;;5056380;28;20617;-71
2023/10/25 09:06:52;;;;;;;8.60;4.72;;;10.40;99.90;;;;;;5056144;28;20064;-71
2023/10/25 09:09:20;;;;;;;9.98;5.00;;;10.40;99.90;;;;;;5055887;28;20052;-72
2023/10/25 09:11:47;;;;;;;10.15;5.18;;;10.40;99.90;;;;;;5056151;28;20056;-72
2023/10/25 09:14:14;;;;;;;9.48;4.80;;;10.40;99.90;;;;;;5056055;28;20098;-71
2023/10/25 09:16:42;;;;;;;8.85;4.82;;;10.40;99.90;;;;;;5055317;28;20044;-71
2023/10/25 09:19:10;;;;;;;11.23;5.78;;;10.40;99.90;;;;;;5056101;28;20056;-71
2023/10/25 09:21:37;;;;;;;6.22;4.90;;;10.40;99.90;;;;;;5055263;28;20056;-71
2023/10/25 09:24:07;;;;;;;7.13;4.65;;;10.50;99.90;;;;;;5055957;28;20404;-71
2023/10/25 09:26:39;;;;;;;9.82;5.20;;;10.50;99.90;;;;;;5073780;28;20044;-72
2023/10/25 09:29:08;;;;;;;9.50;4.95;;;10.50;99.90;;;;;;5055484;28;20076;-72
2023/10/25 09:31:37;;;;;;;9.60;4.95;;;10.60;99.90;;;;;;5055898;28;20458;-72
2023/10/25 09:34:08;;;;;;;11.45;4.93;;;10.60;99.90;;;;;;5055497;28;20115;-72
2023/10/25 09:36:35;;;;;;;11.75;5.18;;;10.60;99.90;;;;;;5054591;28;20492;-72
2023/10/25 09:39:02;;;;;;;11.15;5.03;;;10.70;99.90;;;;;;5055347;28;20099;-72
2023/10/25 09:41:32;;;;;;;9.77;5.32;;;10.70;99.90;;;;;;5073002;28;20464;-72
2023/10/25 09:44:12;;;;;;;14.23;4.93;;;10.70;99.90;;;;;;5054848;28;20051;-72
2023/10/25 09:46:43;;;;;;;6.45;4.57;;;10.80;99.90;;;;;;5055315;28;20056;-72
2023/10/25 09:49:11;;;;;;;7.13;4.55;;;10.90;99.90;;;;;;5055261;28;20396;-72
2023/10/25 09:51:59;;;;;;;8.45;4.22;;;10.90;99.90;;;;;;5054818;28;20056;-72
2023/10/25 09:54:33;;;;;;;8.95;4.88;;;11.00;99.90;;;;;;5054645;28;20493;-72
2023/10/25 09:57:02;;;;;;;9.57;5.07;;;11.10;99.90;;;;;;5054580;28;20052;-73
2023/10/25 09:59:34;;;;;;;9.25;4.85;;;11.20;99.90;;;;;;5051172;28;20045;-73
2023/10/25 10:02:07;;;;;;;7.85;4.95;;;11.30;99.90;;;;;;5055192;28;20048;-72
2023/10/25 10:04:46;;;;;;;9.85;4.70;;;11.40;99.90;;;;;;5054883;28;20416;-72
2023/10/25 10:07:35;;;;;;;7.95;4.88;;;11.60;99.90;;;;;;5055177;28;20052;-72
2023/10/25 10:10:12;;;;;;;10.50;4.70;;;11.90;99.90;;;;;;5055245;28;20075;-73
2023/10/25 10:12:39;;;;;;;9.38;5.18;;;12.10;99.90;;;;;;5054466;28;20847;-73
2023/10/25 10:15:08;;;;;;;8.27;4.75;;;12.50;99.90;;;;;;5054844;28;20045;-73
2023/10/25 10:17:42;;;;;;;9.50;4.30;;;12.60;99.90;;;;;;5050600;28;20056;-72
2023/10/25 10:20:23;;;;;;;7.43;4.35;;;12.70;99.90;;;;;;5052501;28;20053;-72
2023/10/25 10:23:06;;;;;;;7.80;4.45;;;12.90;99.90;;;;;;5051880;28;20083;-73
2023/10/25 10:25:46;;;;;;;5.85;4.15;;;13.10;99.90;;;;;;5051554;28;20048;-73
2023/10/25 10:28:13;;;;;;;8.32;4.40;;;13.30;99.90;;;;;;5054738;28;20523;-73
2023/10/25 10:30:43;;;;;;;9.23;4.00;;;13.40;99.90;;;;;;5054667;28;20055;-72
2023/10/25 10:33:12;;;;;;;10.18;4.18;;;13.70;99.90;;;;;;5054077;28;20048;-73
2023/10/25 10:35:45;;;;;;;7.85;4.47;;;13.90;99.90;;;;;;5054636;28;20060;-73
2023/10/25 10:38:12;;;;;;;5.72;3.78;;;13.80;99.90;;;;;;5054382;28;20056;-72
2023/10/25 10:40:39;;;;;;;9.07;3.85;;;13.90;99.90;;;;;;5049729;28;20109;-73
2023/10/25 10:43:07;;;;;;;9.13;4.32;;;13.70;99.90;;;;;;5072246;28;20548;-71
2023/10/25 10:45:35;;;;;;;9.93;4.20;;;13.70;99.90;;;;;;5050287;28;20568;-72
2023/10/25 10:48:13;;;;;;;11.07;4.38;;;13.60;99.90;;;;;;5053825;28;20496;-72
2023/10/25 10:50:41;;;;;;;6.07;3.88;;;13.50;99.90;;;;;;5054591;28;20377;-71
2023/10/25 10:53:07;;;;;;;7.88;3.92;;;13.60;99.90;;;;;;5053849;28;20076;-72
2023/10/25 10:55:34;;;;;;;5.30;3.40;;;13.60;99.90;;;;;;5054214;28;20048;-72
2023/10/25 10:58:02;;;;;;;8.27;3.58;;;13.60;99.90;;;;;;5054035;28;20496;-73
2023/10/25 11:00:29;;;;;;;9.68;3.35;;;13.70;99.90;;;;;;5057855;28;20057;-72
2023/10/25 11:02:56;;;;;;;6.70;3.28;;;13.90;99.90;;;;;;5070823;28;20527;-72
2023/10/25 11:05:24;;;;;;;10.30;3.47;;;14.00;99.90;;;;;;5071077;28;20052;-73
2023/10/25 11:07:53;;;;;;;5.50;3.28;;;14.10;99.90;;;;;;5070102;28;20094;-72
2023/10/25 11:10:20;;;;;;;8.40;4.20;;;14.20;99.90;;;;;;5071067;28;20054;-73
2023/10/25 11:12:47;;;;;;;7.80;3.60;;;14.50;99.90;;;;;;5066024;28;20094;-73
2023/10/25 11:15:14;;;;;;;7.65;3.72;;;14.70;99.90;;;;;;5069975;28;20040;-73
2023/10/25 11:17:42;;;;;;;6.03;4.10;;;14.90;99.90;;;;;;5070665;28;20458;-73
2023/10/25 11:20:09;;;;;;;8.60;3.90;;;15.20;99.90;;;;;;5071845;28;20064;-73
2023/10/25 11:22:37;;;;;;;7.20;4.07;;;15.30;99.90;;;;;;5070410;28;20060;-72
2023/10/25 11:25:10;;;;;;;5.82;3.92;;;15.30;99.90;;;;;;5070367;28;20044;-73
2023/10/25 11:27:37;;;;;;;6.35;3.88;;;15.20;99.90;;;;;;5070714;28;20053;-73
2023/10/25 11:30:05;;;;;;;6.53;3.92;;;15.10;99.90;;;;;;5070275;28;20154;-73
2023/10/25 11:32:33;;;;;;;6.30;3.47;;;14.80;99.90;;;;;;5066280;28;20098;-73
2023/10/25 11:35:00;;;;;;;6.85;3.83;;;14.60;99.90;;;;;;5070424;28;20048;-73
2023/10/25 11:37:28;;;;;;;6.18;4.13;;;14.50;99.90;;;;;;5070223;28;20052;-73
2023/10/25 11:39:57;;;;;;;7.25;3.50;;;14.30;99.90;;;;;;5070358;28;20053;-73
2023/10/25 11:42:26;;;;;;;6.25;4.15;;;14.00;99.90;;;;;;5070027;28;20106;-73
2023/10/25 11:44:53;;;;;;;7.75;4.47;;;14.00;99.90;;;;;;5066928;28;20484;-73
2023/10/25 11:47:22;;;;;;;6.18;4.25;;;13.90;99.90;;;;;;5068305;28;20052;-74
2023/10/25 11:49:52;;;;;;;7.95;4.07;;;13.90;99.90;;;;;;5069683;28;20053;-73
2023/10/25 11:52:22;;;;;;;7.32;4.25;;;13.90;99.90;;;;;;5070485;28;20131;-73
2023/10/25 11:54:55;;;;;;;8.88;4.35;;;13.90;99.90;;;;;;5069915;28;20052;-72
2023/10/25 11:57:23;;;;;;;7.72;4.70;;;13.80;99.90;;;;;;5069915;28;20098;-71
2023/10/25 11:59:50;;;;;;;8.40;4.43;;;13.80;99.90;;;;;;5072715;28;20057;-73
2023/10/25 12:02:19;;;;;;;9.80;4.38;;;13.70;99.90;;;;;;5073493;28;20052;-73
2023/10/25 12:04:46;;;;;;;7.90;4.32;;;13.60;99.90;;;;;;5091282;28;20442;-73
2023/10/25 12:07:13;;;;;;;7.78;4.75;;;13.50;99.90;;;;;;5073803;28;20434;-74
2023/10/25 12:09:42;;;;;;;9.32;4.10;;;13.40;99.90;;;;;;5073673;28;20052;-73
2023/10/25 12:12:10;;;;;;;8.35;4.38;;;13.40;99.90;;;;;;5074559;28;20048;-72
2023/10/25 12:14:38;;;;;;;10.50;4.32;;;13.30;99.90;;;;;;5077048;28;20043;-73
2023/10/25 12:17:06;;;;;;;6.32;4.35;;;13.30;99.90;;;;;;5077125;28;20044;-73
2023/10/25 12:19:35;;;;;;;7.53;4.50;;;13.20;99.90;;;;;;5090304;28;20048;-72
2023/10/25 12:22:05;;;;;;;8.40;3.47;;;13.20;99.90;;;;;;5076954;28;20047;-73
2023/10/25 12:24:32;;;;;;;9.63;3.80;;;13.10;99.90;;;;;;5076484;28;20515;-73
2023/10/25 12:26:59;;;;;;;7.32;4.40;;;13.00;99.90;;;;;;5077018;28;20389;-73
2023/10/25 12:29:26;;;;;;;9.40;4.20;;;12.90;99.90;;;;;;5077210;28;20457;-74
2023/10/25 12:31:54;;;;;;;5.88;3.67;;;12.80;99.90;;;;;;5072222;28;20063;-73
2023/10/25 12:34:22;;;;;;;6.18;4.13;;;12.90;99.90;;;;;;5095052;28;20052;-74
2023/10/25 12:36:50;;;;;;;8.38;4.20;;;12.90;99.90;;;;;;5076804;28;20075;-73
2023/10/25 12:39:17;;;;;;;7.50;4.07;;;12.90;99.90;;;;;;5076311;28;20052;-73
2023/10/25 12:41:43;;;;;;;6.18;3.25;;;12.80;99.90;;;;;;5076663;28;20078;-72
2023/10/25 12:44:12;;;;;;;7.32;4.07;;;12.80;99.90;;;;;;5076684;28;20109;-73
2023/10/25 12:46:39;;;;;;;8.48;3.45;;;12.70;99.90;;;;;;5076394;28;20058;-73
2023/10/25 12:49:08;;;;;;;9.35;3.85;;;12.70;99.90;;;;;;5072286;28;20048;-73
2023/10/25 12:51:35;;;;;;;9.73;3.47;;;12.70;99.90;;;;;;5076706;28;20051;-73